Terminal Aerodrome Forecast
Issued by NWS

Home | Current Version | Previous Version | Text Only | Print | Product List | Glossary On
Versions: 1 2 3 4 5 6 7 8 9 10 11 12 13 14 15
000
FTUS43 KPAH 260903 AAB
TAFCGI
TAF AMD
KCGI 260903Z 2609/2706 36010KT 4SM -RA BR SCT009 OVC015
      TEMPO 2609/2612 2SM -RA BR OVC009
     FM261200 35015G21KT 5SM -SHRA BR BKN015
     FM261900 36010KT P6SM SCT250=

USA.gov is the U.S. government's official web portal to all federal, state and local government web resources and services.